Jaraguari, Brazil
Current Conditions -  °F | °C
As of 7:00 AM on Monday 22 Dec 2014 (Local Time) from SBCG Reporting Station
Broken Clouds Broken Clouds  
Wind Chill: 72°   Ceiling: 200
Heat Index: 72°   Visibility: 6mi
Dew Point: 70°   Wind: 15mph
Humidity: 94%   Direction: 350°N
Pressure: 29.85"   Gusts: NA
Location:  20.14°S, 54.4°W
Report Text: SBCG 221000Z 35013KT 9999 BKN002 SCT015 FEW040TCU 22/21 Q1011
Loading
Personal Weather Stations






























Interactive Weather Map New forecast layout! Learn more

10-Day Weather Forecast

Advertisements
Track Severe Weather on mobile